sensor_id;sensor_type;location;lat;lon;timestamp;temperature;humidity
810;DHT22;387;48.772;9.186;2024-02-23T00:01:32;6.50;79.90
810;DHT22;387;48.772;9.186;2024-02-23T00:03:57;6.50;79.90
810;DHT22;387;48.772;9.186;2024-02-23T00:06:23;6.60;80.00
810;DHT22;387;48.772;9.186;2024-02-23T00:08:53;6.50;79.70
810;DHT22;387;48.772;9.186;2024-02-23T00:11:20;6.50;80.00
810;DHT22;387;48.772;9.186;2024-02-23T00:13:46;6.60;79.60
810;DHT22;387;48.772;9.186;2024-02-23T00:16:11;6.60;79.60
810;DHT22;387;48.772;9.186;2024-02-23T00:18:38;6.60;79.60
810;DHT22;387;48.772;9.186;2024-02-23T00:21:03;6.60;79.70
810;DHT22;387;48.772;9.186;2024-02-23T00:23:29;6.60;79.30
810;DHT22;387;48.772;9.186;2024-02-23T00:25:55;6.70;79.70
810;DHT22;387;48.772;9.186;2024-02-23T00:28:21;6.60;79.50
810;DHT22;387;48.772;9.186;2024-02-23T00:30:47;6.70;79.50
810;DHT22;387;48.772;9.186;2024-02-23T00:33:12;6.70;79.20
810;DHT22;387;48.772;9.186;2024-02-23T00:35:38;6.60;79.20
810;DHT22;387;48.772;9.186;2024-02-23T00:38:04;6.70;79.60
810;DHT22;387;48.772;9.186;2024-02-23T00:40:29;6.70;79.00
810;DHT22;387;48.772;9.186;2024-02-23T00:42:55;6.70;79.30
810;DHT22;387;48.772;9.186;2024-02-23T00:45:21;6.70;79.50
810;DHT22;387;48.772;9.186;2024-02-23T00:47:47;6.70;79.20
810;DHT22;387;48.772;9.186;2024-02-23T00:50:13;6.70;79.50
810;DHT22;387;48.772;9.186;2024-02-23T00:52:39;6.70;79.00
810;DHT22;387;48.772;9.186;2024-02-23T00:55:06;6.70;79.30
810;DHT22;387;48.772;9.186;2024-02-23T00:57:34;6.70;79.30
810;DHT22;387;48.772;9.186;2024-02-23T01:00:01;6.70;79.20
810;DHT22;387;48.772;9.186;2024-02-23T01:02:27;6.80;79.00
810;DHT22;387;48.772;9.186;2024-02-23T01:04:53;6.80;78.90
810;DHT22;387;48.772;9.186;2024-02-23T01:07:22;6.80;78.40
810;DHT22;387;48.772;9.186;2024-02-23T01:09:48;6.80;78.40
810;DHT22;387;48.772;9.186;2024-02-23T01:12:13;6.80;78.40
810;DHT22;387;48.772;9.186;2024-02-23T01:14:39;6.80;78.30
810;DHT22;387;48.772;9.186;2024-02-23T01:17:04;6.80;78.30
810;DHT22;387;48.772;9.186;2024-02-23T01:19:30;6.80;78.70
810;DHT22;387;48.772;9.186;2024-02-23T01:21:56;6.80;78.70
810;DHT22;387;48.772;9.186;2024-02-23T01:24:26;6.80;78.10
810;DHT22;387;48.772;9.186;2024-02-23T01:26:53;6.80;78.40
810;DHT22;387;48.772;9.186;2024-02-23T01:29:20;6.90;78.00
810;DHT22;387;48.772;9.186;2024-02-23T01:31:45;6.90;78.00
810;DHT22;387;48.772;9.186;2024-02-23T01:34:11;6.90;77.60
810;DHT22;387;48.772;9.186;2024-02-23T01:36:36;6.90;77.30
810;DHT22;387;48.772;9.186;2024-02-23T01:39:02;6.80;77.60
810;DHT22;387;48.772;9.186;2024-02-23T01:41:29;6.80;77.30
810;DHT22;387;48.772;9.186;2024-02-23T01:43:54;6.80;77.60
810;DHT22;387;48.772;9.186;2024-02-23T01:46:20;6.80;77.70
810;DHT22;387;48.772;9.186;2024-02-23T01:48:46;6.90;77.40
810;DHT22;387;48.772;9.186;2024-02-23T01:51:12;6.80;77.30
810;DHT22;387;48.772;9.186;2024-02-23T01:53:38;6.90;77.00
810;DHT22;387;48.772;9.186;2024-02-23T01:56:04;6.90;77.10
810;DHT22;387;48.772;9.186;2024-02-23T01:58:33;6.90;77.30
810;DHT22;387;48.772;9.186;2024-02-23T02:01:00;6.90;77.40
810;DHT22;387;48.772;9.186;2024-02-23T02:03:26;6.90;77.40
810;DHT22;387;48.772;9.186;2024-02-23T02:05:53;6.90;77.60
810;DHT22;387;48.772;9.186;2024-02-23T02:08:19;6.90;77.30
810;DHT22;387;48.772;9.186;2024-02-23T02:10:45;6.90;77.70
810;DHT22;387;48.772;9.186;2024-02-23T02:13:12;6.90;77.40
810;DHT22;387;48.772;9.186;2024-02-23T02:15:38;6.90;77.40
810;DHT22;387;48.772;9.186;2024-02-23T02:18:04;6.90;77.30
810;DHT22;387;48.772;9.186;2024-02-23T02:20:32;6.90;77.40
810;DHT22;387;48.772;9.186;2024-02-23T02:22:58;6.90;77.80
810;DHT22;387;48.772;9.186;2024-02-23T02:25:24;6.90;77.10
810;DHT22;387;48.772;9.186;2024-02-23T02:27:50;6.90;77.10
810;DHT22;387;48.772;9.186;2024-02-23T02:30:15;6.80;77.30
810;DHT22;387;48.772;9.186;2024-02-23T02:32:41;6.80;77.00
810;DHT22;387;48.772;9.186;2024-02-23T02:35:07;6.80;76.70
810;DHT22;387;48.772;9.186;2024-02-23T02:37:33;6.80;76.80
810;DHT22;387;48.772;9.186;2024-02-23T02:39:59;6.80;77.00
810;DHT22;387;48.772;9.186;2024-02-23T02:42:25;6.80;77.00
810;DHT22;387;48.772;9.186;2024-02-23T02:44:51;6.80;77.10
810;DHT22;387;48.772;9.186;2024-02-23T02:47:16;6.80;76.70
810;DHT22;387;48.772;9.186;2024-02-23T02:49:42;6.80;77.00
810;DHT22;387;48.772;9.186;2024-02-23T02:52:08;6.80;77.00
810;DHT22;387;48.772;9.186;2024-02-23T02:54:34;6.70;76.20
810;DHT22;387;48.772;9.186;2024-02-23T02:56:59;6.70;76.20
810;DHT22;387;48.772;9.186;2024-02-23T02:59:25;6.70;75.90
810;DHT22;387;48.772;9.186;2024-02-23T03:01:50;6.70;76.10
810;DHT22;387;48.772;9.186;2024-02-23T03:04:16;6.70;76.10
810;DHT22;387;48.772;9.186;2024-02-23T03:06:41;6.70;75.80
810;DHT22;387;48.772;9.186;2024-02-23T03:09:07;6.70;75.80
810;DHT22;387;48.772;9.186;2024-02-23T03:11:33;6.70;75.20
810;DHT22;387;48.772;9.186;2024-02-23T03:13:59;6.70;75.10
810;DHT22;387;48.772;9.186;2024-02-23T03:16:24;6.70;74.50
810;DHT22;387;48.772;9.186;2024-02-23T03:18:54;6.70;74.30
810;DHT22;387;48.772;9.186;2024-02-23T03:21:20;6.70;74.30
810;DHT22;387;48.772;9.186;2024-02-23T03:23:45;6.70;73.90
810;DHT22;387;48.772;9.186;2024-02-23T03:26:11;6.70;73.70
810;DHT22;387;48.772;9.186;2024-02-23T03:28:36;6.70;74.30
810;DHT22;387;48.772;9.186;2024-02-23T03:31:02;6.70;74.50
810;DHT22;387;48.772;9.186;2024-02-23T03:33:28;6.70;73.20
810;DHT22;387;48.772;9.186;2024-02-23T03:35:53;6.70;71.70
810;DHT22;387;48.772;9.186;2024-02-23T03:38:20;6.60;72.30
810;DHT22;387;48.772;9.186;2024-02-23T03:40:46;6.60;72.30
810;DHT22;387;48.772;9.186;2024-02-23T03:43:12;6.70;71.10
810;DHT22;387;48.772;9.186;2024-02-23T03:45:37;6.70;71.30
810;DHT22;387;48.772;9.186;2024-02-23T03:48:04;6.70;71.00
810;DHT22;387;48.772;9.186;2024-02-23T03:50:30;6.70;70.50
810;DHT22;387;48.772;9.186;2024-02-23T03:52:56;6.60;71.10
810;DHT22;387;48.772;9.186;2024-02-23T03:55:22;6.60;71.30
810;DHT22;387;48.772;9.186;2024-02-23T03:57:48;6.70;71.60
810;DHT22;387;48.772;9.186;2024-02-23T04:00:14;6.70;71.40
810;DHT22;387;48.772;9.186;2024-02-23T04:02:39;6.70;71.10
810;DHT22;387;48.772;9.186;2024-02-23T04:05:06;6.70;70.50
810;DHT22;387;48.772;9.186;2024-02-23T04:07:31;6.70;70.40
810;DHT22;387;48.772;9.186;2024-02-23T04:09:57;6.60;70.40
810;DHT22;387;48.772;9.186;2024-02-23T04:12:23;6.60;71.10
810;DHT22;387;48.772;9.186;2024-02-23T04:14:49;6.50;69.80
810;DHT22;387;48.772;9.186;2024-02-23T04:17:15;6.50;69.80
810;DHT22;387;48.772;9.186;2024-02-23T04:19:41;6.50;69.80
810;DHT22;387;48.772;9.186;2024-02-23T04:22:08;6.50;69.90
810;DHT22;387;48.772;9.186;2024-02-23T04:24:36;6.50;69.90
810;DHT22;387;48.772;9.186;2024-02-23T04:27:03;6.40;70.20
810;DHT22;387;48.772;9.186;2024-02-23T04:29:29;6.30;70.70
810;DHT22;387;48.772;9.186;2024-02-23T04:31:55;6.30;70.70
810;DHT22;387;48.772;9.186;2024-02-23T04:34:20;6.50;69.80
810;DHT22;387;48.772;9.186;2024-02-23T04:36:46;6.40;69.70
810;DHT22;387;48.772;9.186;2024-02-23T04:39:12;6.40;70.10
810;DHT22;387;48.772;9.186;2024-02-23T04:41:38;6.40;69.70
810;DHT22;387;48.772;9.186;2024-02-23T04:44:03;6.50;69.40
810;DHT22;387;48.772;9.186;2024-02-23T04:46:30;6.40;69.80
810;DHT22;387;48.772;9.186;2024-02-23T04:48:56;6.30;69.90
810;DHT22;387;48.772;9.186;2024-02-23T04:51:21;6.30;69.50
810;DHT22;387;48.772;9.186;2024-02-23T04:53:49;6.20;69.70
810;DHT22;387;48.772;9.186;2024-02-23T04:56:15;6.30;69.50
810;DHT22;387;48.772;9.186;2024-02-23T04:58:40;6.30;69.10
810;DHT22;387;48.772;9.186;2024-02-23T05:01:08;6.30;69.20
810;DHT22;387;48.772;9.186;2024-02-23T05:03:33;6.30;69.10
810;DHT22;387;48.772;9.186;2024-02-23T05:05:59;6.30;69.10
810;DHT22;387;48.772;9.186;2024-02-23T05:08:24;6.30;69.40
810;DHT22;387;48.772;9.186;2024-02-23T05:10:52;6.20;69.70
810;DHT22;387;48.772;9.186;2024-02-23T05:13:17;6.20;69.90
810;DHT22;387;48.772;9.186;2024-02-23T05:15:43;6.20;69.50
810;DHT22;387;48.772;9.186;2024-02-23T05:18:08;6.20;69.50
810;DHT22;387;48.772;9.186;2024-02-23T05:20:34;6.20;69.80
810;DHT22;387;48.772;9.186;2024-02-23T05:22:59;6.10;70.20
810;DHT22;387;48.772;9.186;2024-02-23T05:25:26;6.10;70.20
810;DHT22;387;48.772;9.186;2024-02-23T05:27:52;6.10;70.20
810;DHT22;387;48.772;9.186;2024-02-23T05:30:18;6.10;70.20
810;DHT22;387;48.772;9.186;2024-02-23T05:32:43;6.00;70.20
810;DHT22;387;48.772;9.186;2024-02-23T05:35:09;6.00;70.40
810;DHT22;387;48.772;9.186;2024-02-23T05:37:36;6.00;70.70
810;DHT22;387;48.772;9.186;2024-02-23T05:40:02;6.00;70.40
810;DHT22;387;48.772;9.186;2024-02-23T05:42:31;5.90;70.80
810;DHT22;387;48.772;9.186;2024-02-23T05:44:57;5.90;71.00
810;DHT22;387;48.772;9.186;2024-02-23T05:47:23;5.90;71.00
810;DHT22;387;48.772;9.186;2024-02-23T05:49:50;5.80;71.40
810;DHT22;387;48.772;9.186;2024-02-23T05:52:16;5.90;71.60
810;DHT22;387;48.772;9.186;2024-02-23T05:54:41;5.90;71.10
810;DHT22;387;48.772;9.186;2024-02-23T05:57:07;5.80;71.30
810;DHT22;387;48.772;9.186;2024-02-23T05:59:33;5.80;71.30
810;DHT22;387;48.772;9.186;2024-02-23T06:01:59;5.90;71.30
810;DHT22;387;48.772;9.186;2024-02-23T06:04:25;5.80;71.30
810;DHT22;387;48.772;9.186;2024-02-23T06:06:51;5.80;71.60
810;DHT22;387;48.772;9.186;2024-02-23T06:09:16;5.90;71.60
810;DHT22;387;48.772;9.186;2024-02-23T06:11:42;5.90;72.30
810;DHT22;387;48.772;9.186;2024-02-23T06:14:08;5.90;72.90
810;DHT22;387;48.772;9.186;2024-02-23T06:16:34;5.90;73.70
810;DHT22;387;48.772;9.186;2024-02-23T06:18:59;5.90;74.00
810;DHT22;387;48.772;9.186;2024-02-23T06:21:26;5.90;73.70
810;DHT22;387;48.772;9.186;2024-02-23T06:23:51;5.90;74.90
810;DHT22;387;48.772;9.186;2024-02-23T06:26:17;6.00;75.20
810;DHT22;387;48.772;9.186;2024-02-23T06:28:43;6.00;75.40
810;DHT22;387;48.772;9.186;2024-02-23T06:31:09;6.10;75.40
810;DHT22;387;48.772;9.186;2024-02-23T06:33:35;6.10;75.40
810;DHT22;387;48.772;9.186;2024-02-23T06:36:01;6.10;75.70
810;DHT22;387;48.772;9.186;2024-02-23T06:38:30;6.00;76.10
810;DHT22;387;48.772;9.186;2024-02-23T06:40:56;6.00;76.50
810;DHT22;387;48.772;9.186;2024-02-23T06:43:22;6.00;77.10
810;DHT22;387;48.772;9.186;2024-02-23T06:45:47;6.00;77.40
810;DHT22;387;48.772;9.186;2024-02-23T06:48:13;6.00;77.70
810;DHT22;387;48.772;9.186;2024-02-23T06:50:38;6.00;77.80
810;DHT22;387;48.772;9.186;2024-02-23T06:53:05;6.00;77.60
810;DHT22;387;48.772;9.186;2024-02-23T06:55:33;6.00;77.60
810;DHT22;387;48.772;9.186;2024-02-23T06:57:59;5.90;77.40
810;DHT22;387;48.772;9.186;2024-02-23T07:00:25;5.90;77.30
810;DHT22;387;48.772;9.186;2024-02-23T07:02:50;6.00;77.00
810;DHT22;387;48.772;9.186;2024-02-23T07:05:16;6.00;77.10
810;DHT22;387;48.772;9.186;2024-02-23T07:07:42;6.00;77.10
810;DHT22;387;48.772;9.186;2024-02-23T07:10:08;6.00;77.10
810;DHT22;387;48.772;9.186;2024-02-23T07:12:35;5.90;77.30
810;DHT22;387;48.772;9.186;2024-02-23T07:15:00;5.90;77.70
810;DHT22;387;48.772;9.186;2024-02-23T07:17:27;6.00;78.00
810;DHT22;387;48.772;9.186;2024-02-23T07:19:53;5.90;77.80
810;DHT22;387;48.772;9.186;2024-02-23T07:22:19;6.00;78.00
810;DHT22;387;48.772;9.186;2024-02-23T07:24:45;6.00;77.80
810;DHT22;387;48.772;9.186;2024-02-23T07:27:11;6.00;77.70
810;DHT22;387;48.772;9.186;2024-02-23T07:29:36;6.00;77.60
810;DHT22;387;48.772;9.186;2024-02-23T07:32:02;5.90;77.70
810;DHT22;387;48.772;9.186;2024-02-23T07:34:28;5.90;78.00
810;DHT22;387;48.772;9.186;2024-02-23T07:36:55;6.00;78.00
810;DHT22;387;48.772;9.186;2024-02-23T07:39:21;6.00;77.60
810;DHT22;387;48.772;9.186;2024-02-23T07:41:47;6.00;77.40
810;DHT22;387;48.772;9.186;2024-02-23T07:44:13;6.00;76.80
810;DHT22;387;48.772;9.186;2024-02-23T07:46:39;6.00;76.80
810;DHT22;387;48.772;9.186;2024-02-23T07:49:05;6.00;77.10
810;DHT22;387;48.772;9.186;2024-02-23T07:51:32;6.10;77.00
810;DHT22;387;48.772;9.186;2024-02-23T07:53:57;6.10;76.10
810;DHT22;387;48.772;9.186;2024-02-23T07:56:23;6.10;76.10
810;DHT22;387;48.772;9.186;2024-02-23T07:58:49;6.10;75.90
810;DHT22;387;48.772;9.186;2024-02-23T08:01:14;6.10;75.70
810;DHT22;387;48.772;9.186;2024-02-23T08:03:41;6.00;75.70
810;DHT22;387;48.772;9.186;2024-02-23T08:06:07;6.10;75.50
810;DHT22;387;48.772;9.186;2024-02-23T08:08:33;6.00;75.50
810;DHT22;387;48.772;9.186;2024-02-23T08:11:03;6.10;75.50
810;DHT22;387;48.772;9.186;2024-02-23T08:13:29;6.10;75.50
810;DHT22;387;48.772;9.186;2024-02-23T08:15:55;6.00;75.20
810;DHT22;387;48.772;9.186;2024-02-23T08:18:20;6.00;75.50
810;DHT22;387;48.772;9.186;2024-02-23T08:20:48;5.90;75.50
810;DHT22;387;48.772;9.186;2024-02-23T08:23:13;5.90;75.80
810;DHT22;387;48.772;9.186;2024-02-23T08:25:39;5.90;75.90
810;DHT22;387;48.772;9.186;2024-02-23T08:28:05;5.90;75.80
810;DHT22;387;48.772;9.186;2024-02-23T08:30:31;6.00;75.70
810;DHT22;387;48.772;9.186;2024-02-23T08:32:57;6.00;75.20
810;DHT22;387;48.772;9.186;2024-02-23T08:35:22;6.00;74.60
810;DHT22;387;48.772;9.186;2024-02-23T08:37:48;6.00;74.50
810;DHT22;387;48.772;9.186;2024-02-23T08:40:13;6.00;74.30
810;DHT22;387;48.772;9.186;2024-02-23T08:42:39;6.00;74.50
810;DHT22;387;48.772;9.186;2024-02-23T08:45:05;6.00;74.30
810;DHT22;387;48.772;9.186;2024-02-23T08:47:31;5.90;74.20
810;DHT22;387;48.772;9.186;2024-02-23T08:50:01;6.00;73.70
810;DHT22;387;48.772;9.186;2024-02-23T08:52:27;6.00;73.90
810;DHT22;387;48.772;9.186;2024-02-23T08:54:52;5.90;72.90
810;DHT22;387;48.772;9.186;2024-02-23T08:57:18;5.90;73.00
810;DHT22;387;48.772;9.186;2024-02-23T08:59:46;6.00;73.00
810;DHT22;387;48.772;9.186;2024-02-23T09:02:12;6.00;72.60
810;DHT22;387;48.772;9.186;2024-02-23T09:04:37;6.10;72.40
810;DHT22;387;48.772;9.186;2024-02-23T09:07:03;6.10;72.30
810;DHT22;387;48.772;9.186;2024-02-23T09:09:29;6.20;71.70
810;DHT22;387;48.772;9.186;2024-02-23T09:11:55;6.10;71.30
810;DHT22;387;48.772;9.186;2024-02-23T09:14:21;6.10;71.30
810;DHT22;387;48.772;9.186;2024-02-23T09:16:46;6.00;71.40
810;DHT22;387;48.772;9.186;2024-02-23T09:19:12;6.10;71.10
810;DHT22;387;48.772;9.186;2024-02-23T09:21:38;6.10;71.10
810;DHT22;387;48.772;9.186;2024-02-23T09:24:04;6.10;71.10
810;DHT22;387;48.772;9.186;2024-02-23T09:26:30;6.10;70.80
810;DHT22;387;48.772;9.186;2024-02-23T09:28:56;6.10;71.10
810;DHT22;387;48.772;9.186;2024-02-23T09:31:22;6.10;70.80
810;DHT22;387;48.772;9.186;2024-02-23T09:33:47;6.10;71.00
810;DHT22;387;48.772;9.186;2024-02-23T09:36:16;6.20;70.80
810;DHT22;387;48.772;9.186;2024-02-23T09:38:41;6.20;70.40
810;DHT22;387;48.772;9.186;2024-02-23T09:41:16;6.30;70.50
810;DHT22;387;48.772;9.186;2024-02-23T09:43:44;6.30;69.80
810;DHT22;387;48.772;9.186;2024-02-23T09:46:11;6.30;69.50
810;DHT22;387;48.772;9.186;2024-02-23T09:48:38;6.30;69.50
810;DHT22;387;48.772;9.186;2024-02-23T09:51:05;6.20;69.20
810;DHT22;387;48.772;9.186;2024-02-23T09:53:31;6.20;69.50
810;DHT22;387;48.772;9.186;2024-02-23T09:55:58;6.30;69.40
810;DHT22;387;48.772;9.186;2024-02-23T09:58:26;6.30;69.10
810;DHT22;387;48.772;9.186;2024-02-23T10:00:56;6.40;68.60
810;DHT22;387;48.772;9.186;2024-02-23T10:03:27;6.60;68.60
810;DHT22;387;48.772;9.186;2024-02-23T10:05:59;6.80;68.30
810;DHT22;387;48.772;9.186;2024-02-23T10:08:29;7.00;68.00
810;DHT22;387;48.772;9.186;2024-02-23T10:10:56;7.20;67.90
810;DHT22;387;48.772;9.186;2024-02-23T10:13:22;7.30;67.60
810;DHT22;387;48.772;9.186;2024-02-23T10:15:51;7.40;67.30
810;DHT22;387;48.772;9.186;2024-02-23T10:18:17;7.40;67.30
810;DHT22;387;48.772;9.186;2024-02-23T10:20:43;7.40;67.30
810;DHT22;387;48.772;9.186;2024-02-23T10:23:09;7.30;67.20
810;DHT22;387;48.772;9.186;2024-02-23T10:25:35;7.30;66.40
810;DHT22;387;48.772;9.186;2024-02-23T10:28:02;7.40;67.20
810;DHT22;387;48.772;9.186;2024-02-23T10:30:28;7.50;66.30
810;DHT22;387;48.772;9.186;2024-02-23T10:32:56;7.50;66.10
810;DHT22;387;48.772;9.186;2024-02-23T10:35:23;7.70;66.90
810;DHT22;387;48.772;9.186;2024-02-23T10:37:49;8.00;66.00
810;DHT22;387;48.772;9.186;2024-02-23T10:40:18;7.90;65.30
810;DHT22;387;48.772;9.186;2024-02-23T10:42:45;7.70;65.60
810;DHT22;387;48.772;9.186;2024-02-23T10:45:17;7.70;66.60
810;DHT22;387;48.772;9.186;2024-02-23T10:47:44;7.80;65.80
810;DHT22;387;48.772;9.186;2024-02-23T10:50:10;7.90;65.60
810;DHT22;387;48.772;9.186;2024-02-23T10:52:40;8.10;65.40
810;DHT22;387;48.772;9.186;2024-02-23T10:55:08;8.00;64.80
810;DHT22;387;48.772;9.186;2024-02-23T10:57:37;8.00;65.10
810;DHT22;387;48.772;9.186;2024-02-23T11:00:05;7.90;65.10
810;DHT22;387;48.772;9.186;2024-02-23T11:02:45;7.90;65.60
810;DHT22;387;48.772;9.186;2024-02-23T11:05:33;7.90;65.10
810;DHT22;387;48.772;9.186;2024-02-23T11:07:59;8.00;65.60
810;DHT22;387;48.772;9.186;2024-02-23T11:10:24;8.00;64.80
810;DHT22;387;48.772;9.186;2024-02-23T11:13:00;8.00;64.80
810;DHT22;387;48.772;9.186;2024-02-23T11:15:30;8.10;64.80
810;DHT22;387;48.772;9.186;2024-02-23T11:17:59;8.20;64.70
810;DHT22;387;48.772;9.186;2024-02-23T11:20:34;8.20;64.80
810;DHT22;387;48.772;9.186;2024-02-23T11:23:00;8.10;65.10
810;DHT22;387;48.772;9.186;2024-02-23T11:25:29;8.10;65.70
810;DHT22;387;48.772;9.186;2024-02-23T11:27:55;8.20;66.00
810;DHT22;387;48.772;9.186;2024-02-23T11:30:20;8.40;65.60
810;DHT22;387;48.772;9.186;2024-02-23T11:32:47;8.40;65.70
810;DHT22;387;48.772;9.186;2024-02-23T11:35:17;8.30;65.40
810;DHT22;387;48.772;9.186;2024-02-23T11:37:53;8.40;65.60
810;DHT22;387;48.772;9.186;2024-02-23T11:40:27;8.40;65.70
810;DHT22;387;48.772;9.186;2024-02-23T11:42:57;8.40;65.30
810;DHT22;387;48.772;9.186;2024-02-23T11:45:24;8.40;65.30
810;DHT22;387;48.772;9.186;2024-02-23T11:47:50;8.40;65.30
810;DHT22;387;48.772;9.186;2024-02-23T11:50:17;8.40;65.70
810;DHT22;387;48.772;9.186;2024-02-23T11:52:45;8.50;65.80
810;DHT22;387;48.772;9.186;2024-02-23T11:55:10;8.60;65.40
810;DHT22;387;48.772;9.186;2024-02-23T11:57:36;8.80;65.00
810;DHT22;387;48.772;9.186;2024-02-23T12:00:06;8.80;64.80
810;DHT22;387;48.772;9.186;2024-02-23T12:02:35;8.80;64.50
810;DHT22;387;48.772;9.186;2024-02-23T12:05:01;8.70;64.80
810;DHT22;387;48.772;9.186;2024-02-23T12:07:29;8.60;65.10
810;DHT22;387;48.772;9.186;2024-02-23T12:09:56;8.60;65.30
810;DHT22;387;48.772;9.186;2024-02-23T12:12:23;8.60;65.10
810;DHT22;387;48.772;9.186;2024-02-23T12:14:49;8.80;65.30
810;DHT22;387;48.772;9.186;2024-02-23T12:17:14;8.80;65.10
810;DHT22;387;48.772;9.186;2024-02-23T12:19:40;9.00;64.70
810;DHT22;387;48.772;9.186;2024-02-23T12:22:06;9.00;64.70
810;DHT22;387;48.772;9.186;2024-02-23T12:24:32;8.90;64.70
810;DHT22;387;48.772;9.186;2024-02-23T12:26:59;9.00;65.10
810;DHT22;387;48.772;9.186;2024-02-23T12:29:24;9.00;64.50
810;DHT22;387;48.772;9.186;2024-02-23T12:31:50;9.10;64.40
810;DHT22;387;48.772;9.186;2024-02-23T12:34:18;9.00;64.20
810;DHT22;387;48.772;9.186;2024-02-23T12:36:46;8.90;64.40
810;DHT22;387;48.772;9.186;2024-02-23T12:39:11;8.90;64.50
810;DHT22;387;48.772;9.186;2024-02-23T12:41:37;9.10;64.70
810;DHT22;387;48.772;9.186;2024-02-23T12:44:03;9.30;64.40
810;DHT22;387;48.772;9.186;2024-02-23T12:46:29;9.50;64.10
810;DHT22;387;48.772;9.186;2024-02-23T12:48:54;9.70;63.80
810;DHT22;387;48.772;9.186;2024-02-23T12:51:25;9.70;63.10
810;DHT22;387;48.772;9.186;2024-02-23T12:53:50;9.50;62.60
810;DHT22;387;48.772;9.186;2024-02-23T12:56:16;9.30;63.80
810;DHT22;387;48.772;9.186;2024-02-23T12:58:44;9.10;64.20
810;DHT22;387;48.772;9.186;2024-02-23T13:01:10;8.80;64.70
810;DHT22;387;48.772;9.186;2024-02-23T13:03:36;8.70;65.40
810;DHT22;387;48.772;9.186;2024-02-23T13:06:03;8.70;65.60
810;DHT22;387;48.772;9.186;2024-02-23T13:08:28;8.50;66.00
810;DHT22;387;48.772;9.186;2024-02-23T13:10:54;8.40;66.40
810;DHT22;387;48.772;9.186;2024-02-23T13:13:21;8.30;66.60
810;DHT22;387;48.772;9.186;2024-02-23T13:15:48;8.40;66.70
810;DHT22;387;48.772;9.186;2024-02-23T13:18:14;8.60;66.60
810;DHT22;387;48.772;9.186;2024-02-23T13:20:40;9.00;66.30
810;DHT22;387;48.772;9.186;2024-02-23T13:23:09;9.20;65.80
810;DHT22;387;48.772;9.186;2024-02-23T13:25:39;9.40;65.10
810;DHT22;387;48.772;9.186;2024-02-23T13:28:05;9.20;64.80
810;DHT22;387;48.772;9.186;2024-02-23T13:30:32;9.00;65.60
810;DHT22;387;48.772;9.186;2024-02-23T13:32:58;8.90;66.00
810;DHT22;387;48.772;9.186;2024-02-23T13:35:24;8.80;66.00
810;DHT22;387;48.772;9.186;2024-02-23T13:37:50;8.80;66.10
810;DHT22;387;48.772;9.186;2024-02-23T13:40:16;8.80;66.40
810;DHT22;387;48.772;9.186;2024-02-23T13:42:41;8.90;66.60
810;DHT22;387;48.772;9.186;2024-02-23T13:45:08;8.80;66.10
810;DHT22;387;48.772;9.186;2024-02-23T13:47:34;8.90;66.30
810;DHT22;387;48.772;9.186;2024-02-23T13:50:01;9.10;66.10
810;DHT22;387;48.772;9.186;2024-02-23T13:52:27;9.30;65.80
810;DHT22;387;48.772;9.186;2024-02-23T13:54:53;9.50;65.70
810;DHT22;387;48.772;9.186;2024-02-23T13:57:18;9.40;65.40
810;DHT22;387;48.772;9.186;2024-02-23T13:59:44;9.30;65.70
810;DHT22;387;48.772;9.186;2024-02-23T14:02:10;9.20;65.80
810;DHT22;387;48.772;9.186;2024-02-23T14:04:35;9.20;66.00
810;DHT22;387;48.772;9.186;2024-02-23T14:07:01;9.00;66.00
810;DHT22;387;48.772;9.186;2024-02-23T14:09:27;9.00;66.30
810;DHT22;387;48.772;9.186;2024-02-23T14:11:52;9.20;66.00
810;DHT22;387;48.772;9.186;2024-02-23T14:14:19;9.20;66.10
810;DHT22;387;48.772;9.186;2024-02-23T14:16:45;9.40;66.00
810;DHT22;387;48.772;9.186;2024-02-23T14:19:11;9.60;65.60
810;DHT22;387;48.772;9.186;2024-02-23T14:21:36;9.80;65.30
810;DHT22;387;48.772;9.186;2024-02-23T14:24:03;9.80;64.70
810;DHT22;387;48.772;9.186;2024-02-23T14:26:28;9.90;65.30
810;DHT22;387;48.772;9.186;2024-02-23T14:28:54;9.80;64.70
810;DHT22;387;48.772;9.186;2024-02-23T14:31:20;9.70;65.00
810;DHT22;387;48.772;9.186;2024-02-23T14:33:45;9.70;64.50
810;DHT22;387;48.772;9.186;2024-02-23T14:36:11;9.60;65.00
810;DHT22;387;48.772;9.186;2024-02-23T14:38:36;9.50;65.10
810;DHT22;387;48.772;9.186;2024-02-23T14:41:02;9.40;65.60
810;DHT22;387;48.772;9.186;2024-02-23T14:43:28;9.20;65.80
810;DHT22;387;48.772;9.186;2024-02-23T14:45:57;9.40;66.00
810;DHT22;387;48.772;9.186;2024-02-23T14:48:22;9.60;65.80
810;DHT22;387;48.772;9.186;2024-02-23T14:50:48;9.90;65.30
810;DHT22;387;48.772;9.186;2024-02-23T14:53:15;10.00;64.70
810;DHT22;387;48.772;9.186;2024-02-23T14:55:40;10.10;64.10
810;DHT22;387;48.772;9.186;2024-02-23T14:58:06;10.20;63.80
810;DHT22;387;48.772;9.186;2024-02-23T15:00:32;10.00;63.50
810;DHT22;387;48.772;9.186;2024-02-23T15:02:58;9.80;63.90
810;DHT22;387;48.772;9.186;2024-02-23T15:05:24;9.70;64.40
810;DHT22;387;48.772;9.186;2024-02-23T15:07:49;9.70;64.40
810;DHT22;387;48.772;9.186;2024-02-23T15:10:15;9.60;64.70
810;DHT22;387;48.772;9.186;2024-02-23T15:12:41;9.40;65.10
810;DHT22;387;48.772;9.186;2024-02-23T15:15:07;9.40;65.00
810;DHT22;387;48.772;9.186;2024-02-23T15:17:33;9.20;65.60
810;DHT22;387;48.772;9.186;2024-02-23T15:19:58;9.10;66.00
810;DHT22;387;48.772;9.186;2024-02-23T15:22:24;9.30;66.00
810;DHT22;387;48.772;9.186;2024-02-23T15:24:51;9.30;65.80
810;DHT22;387;48.772;9.186;2024-02-23T15:27:18;9.30;65.70
810;DHT22;387;48.772;9.186;2024-02-23T15:29:43;9.30;65.80
810;DHT22;387;48.772;9.186;2024-02-23T15:32:09;9.30;65.70
810;DHT22;387;48.772;9.186;2024-02-23T15:34:38;9.30;65.70
810;DHT22;387;48.772;9.186;2024-02-23T15:37:03;9.20;65.80
810;DHT22;387;48.772;9.186;2024-02-23T15:39:29;9.30;65.80
810;DHT22;387;48.772;9.186;2024-02-23T15:41:55;9.30;65.60
810;DHT22;387;48.772;9.186;2024-02-23T15:44:21;9.30;65.70
810;DHT22;387;48.772;9.186;2024-02-23T15:46:46;9.10;65.60
810;DHT22;387;48.772;9.186;2024-02-23T15:49:12;9.00;65.30
810;DHT22;387;48.772;9.186;2024-02-23T15:51:38;9.00;65.70
810;DHT22;387;48.772;9.186;2024-02-23T15:54:04;9.10;65.80
810;DHT22;387;48.772;9.186;2024-02-23T15:56:32;9.00;66.00
810;DHT22;387;48.772;9.186;2024-02-23T15:58:59;9.10;65.80
810;DHT22;387;48.772;9.186;2024-02-23T16:01:26;9.10;66.00
810;DHT22;387;48.772;9.186;2024-02-23T16:03:52;9.20;66.10
810;DHT22;387;48.772;9.186;2024-02-23T16:06:17;9.20;66.00
810;DHT22;387;48.772;9.186;2024-02-23T16:08:45;9.20;66.40
810;DHT22;387;48.772;9.186;2024-02-23T16:11:13;9.30;66.60
810;DHT22;387;48.772;9.186;2024-02-23T16:13:40;9.10;66.30
810;DHT22;387;48.772;9.186;2024-02-23T16:16:07;9.10;66.60
810;DHT22;387;48.772;9.186;2024-02-23T16:18:33;9.00;67.00
810;DHT22;387;48.772;9.186;2024-02-23T16:20:59;9.00;67.20
810;DHT22;387;48.772;9.186;2024-02-23T16:23:26;8.90;67.60
810;DHT22;387;48.772;9.186;2024-02-23T16:25:52;8.80;68.00
810;DHT22;387;48.772;9.186;2024-02-23T16:28:17;8.70;67.90
810;DHT22;387;48.772;9.186;2024-02-23T16:30:43;8.70;68.00
810;DHT22;387;48.772;9.186;2024-02-23T16:33:09;8.70;67.90
810;DHT22;387;48.772;9.186;2024-02-23T16:35:34;8.70;67.50
810;DHT22;387;48.772;9.186;2024-02-23T16:38:00;8.60;67.70
810;DHT22;387;48.772;9.186;2024-02-23T16:40:25;8.60;68.20
810;DHT22;387;48.772;9.186;2024-02-23T16:42:55;8.60;68.00
810;DHT22;387;48.772;9.186;2024-02-23T16:45:21;8.60;68.30